sensor_id;sensor_type;location;lat;lon;timestamp;temperature;humidity
13561;DHT22;6852;51.686;5.314;2022-10-20T00:01:51;10.90;99.90
13561;DHT22;6852;51.686;5.314;2022-10-20T00:04:17;11.00;99.90
13561;DHT22;6852;51.686;5.314;2022-10-20T00:06:44;11.00;99.90
13561;DHT22;6852;51.686;5.314;2022-10-20T00:09:11;10.90;99.90
13561;DHT22;6852;51.686;5.314;2022-10-20T00:11:38;10.80;99.90
13561;DHT22;6852;51.686;5.314;2022-10-20T00:14:05;10.80;99.90
13561;DHT22;6852;51.686;5.314;2022-10-20T00:16:35;10.80;99.90
13561;DHT22;6852;51.686;5.314;2022-10-20T00:19:02;10.70;99.90
13561;DHT22;6852;51.686;5.314;2022-10-20T00:21:28;10.70;99.90
13561;DHT22;6852;51.686;5.314;2022-10-20T00:23:58;10.70;99.90
13561;DHT22;6852;51.686;5.314;2022-10-20T00:26:26;10.70;99.90
13561;DHT22;6852;51.686;5.314;2022-10-20T00:28:54;10.70;99.90
13561;DHT22;6852;51.686;5.314;2022-10-20T00:31:22;10.60;99.90
13561;DHT22;6852;51.686;5.314;2022-10-20T00:33:50;10.80;99.90
13561;DHT22;6852;51.686;5.314;2022-10-20T00:36:18;10.70;99.90
13561;DHT22;6852;51.686;5.314;2022-10-20T00:38:45;10.70;99.90
13561;DHT22;6852;51.686;5.314;2022-10-20T00:41:14;10.70;99.90
13561;DHT22;6852;51.686;5.314;2022-10-20T00:43:54;10.70;99.90
13561;DHT22;6852;51.686;5.314;2022-10-20T00:46:38;10.70;99.90
13561;DHT22;6852;51.686;5.314;2022-10-20T00:49:14;10.60;99.90
13561;DHT22;6852;51.686;5.314;2022-10-20T00:51:43;10.60;99.90
13561;DHT22;6852;51.686;5.314;2022-10-20T00:54:15;10.60;99.90
13561;DHT22;6852;51.686;5.314;2022-10-20T00:56:45;10.60;99.90
13561;DHT22;6852;51.686;5.314;2022-10-20T00:59:16;10.60;99.90
13561;DHT22;6852;51.686;5.314;2022-10-20T01:01:44;10.60;99.90
13561;DHT22;6852;51.686;5.314;2022-10-20T01:04:11;10.60;99.90
13561;DHT22;6852;51.686;5.314;2022-10-20T01:06:38;10.50;99.90
13561;DHT22;6852;51.686;5.314;2022-10-20T01:09:06;10.50;99.90
13561;DHT22;6852;51.686;5.314;2022-10-20T01:31:27;10.50;99.90
13561;DHT22;6852;51.686;5.314;2022-10-20T01:34:12;10.50;99.90
13561;DHT22;6852;51.686;5.314;2022-10-20T01:39:22;10.50;99.90
13561;DHT22;6852;51.686;5.314;2022-10-20T01:41:57;10.50;99.90
13561;DHT22;6852;51.686;5.314;2022-10-20T01:44:27;10.50;99.90
13561;DHT22;6852;51.686;5.314;2022-10-20T01:46:56;10.50;99.90
13561;DHT22;6852;51.686;5.314;2022-10-20T01:49:24;10.50;99.90
13561;DHT22;6852;51.686;5.314;2022-10-20T01:51:52;10.60;99.90
13561;DHT22;6852;51.686;5.314;2022-10-20T01:54:25;10.60;99.90
13561;DHT22;6852;51.686;5.314;2022-10-20T02:00:11;10.70;99.90
13561;DHT22;6852;51.686;5.314;2022-10-20T02:11:37;10.70;99.90
13561;DHT22;6852;51.686;5.314;2022-10-20T02:14:08;10.70;99.90
13561;DHT22;6852;51.686;5.314;2022-10-20T02:16:39;10.60;99.90
13561;DHT22;6852;51.686;5.314;2022-10-20T02:19:10;10.60;99.90
13561;DHT22;6852;51.686;5.314;2022-10-20T02:21:38;10.60;99.90
13561;DHT22;6852;51.686;5.314;2022-10-20T02:24:07;10.60;99.90
13561;DHT22;6852;51.686;5.314;2022-10-20T02:26:36;10.60;99.90
13561;DHT22;6852;51.686;5.314;2022-10-20T02:29:16;10.60;99.90
13561;DHT22;6852;51.686;5.314;2022-10-20T02:31:44;10.60;99.90
13561;DHT22;6852;51.686;5.314;2022-10-20T02:34:11;10.60;99.90
13561;DHT22;6852;51.686;5.314;2022-10-20T02:36:41;10.50;99.90
13561;DHT22;6852;51.686;5.314;2022-10-20T02:39:08;10.50;99.90
13561;DHT22;6852;51.686;5.314;2022-10-20T02:41:35;10.50;99.90
13561;DHT22;6852;51.686;5.314;2022-10-20T02:44:03;10.50;99.90
13561;DHT22;6852;51.686;5.314;2022-10-20T02:46:30;10.50;99.90
13561;DHT22;6852;51.686;5.314;2022-10-20T02:48:56;10.50;99.90
13561;DHT22;6852;51.686;5.314;2022-10-20T02:51:23;10.50;99.90
13561;DHT22;6852;51.686;5.314;2022-10-20T02:53:50;10.50;99.90
13561;DHT22;6852;51.686;5.314;2022-10-20T02:56:17;10.40;99.90
13561;DHT22;6852;51.686;5.314;2022-10-20T02:58:44;10.40;99.90
13561;DHT22;6852;51.686;5.314;2022-10-20T03:01:11;10.40;99.90
13561;DHT22;6852;51.686;5.314;2022-10-20T03:03:38;10.40;99.90
13561;DHT22;6852;51.686;5.314;2022-10-20T03:06:12;10.40;99.90
13561;DHT22;6852;51.686;5.314;2022-10-20T03:08:39;10.40;99.90
13561;DHT22;6852;51.686;5.314;2022-10-20T03:11:06;10.50;99.90
13561;DHT22;6852;51.686;5.314;2022-10-20T03:13:33;10.40;99.90
13561;DHT22;6852;51.686;5.314;2022-10-20T03:16:00;10.40;99.90
13561;DHT22;6852;51.686;5.314;2022-10-20T03:18:27;10.40;99.90
13561;DHT22;6852;51.686;5.314;2022-10-20T03:20:54;10.40;99.90
13561;DHT22;6852;51.686;5.314;2022-10-20T03:23:21;10.50;99.90
13561;DHT22;6852;51.686;5.314;2022-10-20T03:25:48;10.50;99.90
13561;DHT22;6852;51.686;5.314;2022-10-20T03:28:15;10.40;99.90
13561;DHT22;6852;51.686;5.314;2022-10-20T03:30:42;10.50;99.90
13561;DHT22;6852;51.686;5.314;2022-10-20T03:33:09;10.50;99.90
13561;DHT22;6852;51.686;5.314;2022-10-20T03:35:35;10.60;99.90
13561;DHT22;6852;51.686;5.314;2022-10-20T03:38:02;10.60;99.90
13561;DHT22;6852;51.686;5.314;2022-10-20T03:40:29;10.60;99.90
13561;DHT22;6852;51.686;5.314;2022-10-20T03:42:56;10.60;99.90
13561;DHT22;6852;51.686;5.314;2022-10-20T03:45:22;10.60;99.90
13561;DHT22;6852;51.686;5.314;2022-10-20T03:47:49;10.60;99.90
13561;DHT22;6852;51.686;5.314;2022-10-20T03:50:16;10.60;99.90
13561;DHT22;6852;51.686;5.314;2022-10-20T03:52:43;10.60;99.90
13561;DHT22;6852;51.686;5.314;2022-10-20T03:55:09;10.60;99.90
13561;DHT22;6852;51.686;5.314;2022-10-20T03:57:36;10.70;99.90
13561;DHT22;6852;51.686;5.314;2022-10-20T04:00:04;10.70;99.90
13561;DHT22;6852;51.686;5.314;2022-10-20T04:02:33;10.70;99.90
13561;DHT22;6852;51.686;5.314;2022-10-20T04:05:01;10.70;99.90
13561;DHT22;6852;51.686;5.314;2022-10-20T04:07:28;10.80;99.90
13561;DHT22;6852;51.686;5.314;2022-10-20T04:09:56;10.80;99.90
13561;DHT22;6852;51.686;5.314;2022-10-20T04:12:23;10.70;99.90
13561;DHT22;6852;51.686;5.314;2022-10-20T04:14:50;10.70;99.90
13561;DHT22;6852;51.686;5.314;2022-10-20T04:17:17;10.70;99.90
13561;DHT22;6852;51.686;5.314;2022-10-20T04:19:43;10.80;99.90
13561;DHT22;6852;51.686;5.314;2022-10-20T04:22:10;10.70;99.90
13561;DHT22;6852;51.686;5.314;2022-10-20T04:24:37;10.80;99.90
13561;DHT22;6852;51.686;5.314;2022-10-20T04:27:04;10.80;99.90
13561;DHT22;6852;51.686;5.314;2022-10-20T04:29:31;10.80;99.90
13561;DHT22;6852;51.686;5.314;2022-10-20T04:31:58;10.80;99.90
13561;DHT22;6852;51.686;5.314;2022-10-20T04:34:24;10.70;99.90
13561;DHT22;6852;51.686;5.314;2022-10-20T04:36:51;10.80;99.90
13561;DHT22;6852;51.686;5.314;2022-10-20T04:39:18;10.80;99.90
13561;DHT22;6852;51.686;5.314;2022-10-20T04:41:44;10.80;99.90
13561;DHT22;6852;51.686;5.314;2022-10-20T04:44:11;10.80;99.90
13561;DHT22;6852;51.686;5.314;2022-10-20T04:46:38;10.90;99.90
13561;DHT22;6852;51.686;5.314;2022-10-20T04:49:05;10.80;99.90
13561;DHT22;6852;51.686;5.314;2022-10-20T04:51:31;10.80;99.90
13561;DHT22;6852;51.686;5.314;2022-10-20T04:53:58;10.80;99.90
13561;DHT22;6852;51.686;5.314;2022-10-20T04:56:25;10.80;99.90
13561;DHT22;6852;51.686;5.314;2022-10-20T04:58:54;10.80;99.90
13561;DHT22;6852;51.686;5.314;2022-10-20T05:01:22;10.80;99.90
13561;DHT22;6852;51.686;5.314;2022-10-20T05:03:49;10.90;99.90
13561;DHT22;6852;51.686;5.314;2022-10-20T05:06:25;10.90;99.90
13561;DHT22;6852;51.686;5.314;2022-10-20T05:08:55;10.90;99.90
13561;DHT22;6852;51.686;5.314;2022-10-20T05:11:24;10.90;99.90
13561;DHT22;6852;51.686;5.314;2022-10-20T05:13:51;11.00;99.90
13561;DHT22;6852;51.686;5.314;2022-10-20T05:16:18;11.00;99.90
13561;DHT22;6852;51.686;5.314;2022-10-20T05:18:46;11.00;99.90
13561;DHT22;6852;51.686;5.314;2022-10-20T05:21:17;10.90;99.90
13561;DHT22;6852;51.686;5.314;2022-10-20T05:23:44;10.80;99.90
13561;DHT22;6852;51.686;5.314;2022-10-20T05:26:14;10.90;99.90
13561;DHT22;6852;51.686;5.314;2022-10-20T05:28:46;10.90;99.90
13561;DHT22;6852;51.686;5.314;2022-10-20T05:31:14;10.90;99.90
13561;DHT22;6852;51.686;5.314;2022-10-20T05:33:48;10.90;99.90
13561;DHT22;6852;51.686;5.314;2022-10-20T05:36:17;11.00;99.90
13561;DHT22;6852;51.686;5.314;2022-10-20T05:38:48;11.00;99.90
13561;DHT22;6852;51.686;5.314;2022-10-20T05:41:17;10.90;99.90
13561;DHT22;6852;51.686;5.314;2022-10-20T05:43:53;10.90;99.90
13561;DHT22;6852;51.686;5.314;2022-10-20T05:46:20;11.00;99.90
13561;DHT22;6852;51.686;5.314;2022-10-20T05:48:47;11.00;99.90
13561;DHT22;6852;51.686;5.314;2022-10-20T05:51:17;11.00;99.90
13561;DHT22;6852;51.686;5.314;2022-10-20T05:53:45;11.00;99.90
13561;DHT22;6852;51.686;5.314;2022-10-20T05:56:14;10.90;99.90
13561;DHT22;6852;51.686;5.314;2022-10-20T05:58:42;11.00;99.90
13561;DHT22;6852;51.686;5.314;2022-10-20T06:01:13;11.10;99.90
13561;DHT22;6852;51.686;5.314;2022-10-20T06:04:01;11.10;99.90
13561;DHT22;6852;51.686;5.314;2022-10-20T06:06:29;11.10;99.90
13561;DHT22;6852;51.686;5.314;2022-10-20T06:08:58;11.10;99.90
13561;DHT22;6852;51.686;5.314;2022-10-20T06:11:25;11.10;99.90
13561;DHT22;6852;51.686;5.314;2022-10-20T06:13:52;11.00;99.90
13561;DHT22;6852;51.686;5.314;2022-10-20T06:16:24;11.00;99.90
13561;DHT22;6852;51.686;5.314;2022-10-20T06:18:52;11.00;99.90
13561;DHT22;6852;51.686;5.314;2022-10-20T06:21:21;11.10;99.90
13561;DHT22;6852;51.686;5.314;2022-10-20T06:23:48;11.10;99.90
13561;DHT22;6852;51.686;5.314;2022-10-20T06:26:21;11.10;99.90
13561;DHT22;6852;51.686;5.314;2022-10-20T06:28:52;11.10;99.90
13561;DHT22;6852;51.686;5.314;2022-10-20T06:31:24;11.10;99.90
13561;DHT22;6852;51.686;5.314;2022-10-20T06:33:51;11.10;99.90
13561;DHT22;6852;51.686;5.314;2022-10-20T06:36:19;11.20;99.90
13561;DHT22;6852;51.686;5.314;2022-10-20T06:38:47;11.20;99.90
13561;DHT22;6852;51.686;5.314;2022-10-20T06:41:16;11.30;99.90
13561;DHT22;6852;51.686;5.314;2022-10-20T06:43:44;11.30;99.90
13561;DHT22;6852;51.686;5.314;2022-10-20T06:46:13;11.30;99.90
13561;DHT22;6852;51.686;5.314;2022-10-20T06:48:40;11.30;99.90
13561;DHT22;6852;51.686;5.314;2022-10-20T06:51:10;11.30;99.90
13561;DHT22;6852;51.686;5.314;2022-10-20T06:53:38;11.20;99.90
13561;DHT22;6852;51.686;5.314;2022-10-20T06:56:13;11.30;99.90
13561;DHT22;6852;51.686;5.314;2022-10-20T06:58:42;11.30;99.90
13561;DHT22;6852;51.686;5.314;2022-10-20T07:01:17;11.40;99.90
13561;DHT22;6852;51.686;5.314;2022-10-20T07:03:46;11.40;99.90
13561;DHT22;6852;51.686;5.314;2022-10-20T07:06:15;11.50;99.90
13561;DHT22;6852;51.686;5.314;2022-10-20T07:08:42;11.50;99.90
13561;DHT22;6852;51.686;5.314;2022-10-20T07:11:15;11.50;99.90
13561;DHT22;6852;51.686;5.314;2022-10-20T07:13:42;11.60;99.90
13561;DHT22;6852;51.686;5.314;2022-10-20T07:16:14;11.60;99.90
13561;DHT22;6852;51.686;5.314;2022-10-20T07:18:41;11.70;99.90
13561;DHT22;6852;51.686;5.314;2022-10-20T07:21:12;11.70;99.90
13561;DHT22;6852;51.686;5.314;2022-10-20T07:23:39;11.70;99.90
13561;DHT22;6852;51.686;5.314;2022-10-20T07:26:12;11.80;99.90
13561;DHT22;6852;51.686;5.314;2022-10-20T07:28:40;11.90;99.90
13561;DHT22;6852;51.686;5.314;2022-10-20T07:31:13;11.90;99.90
13561;DHT22;6852;51.686;5.314;2022-10-20T07:33:40;11.90;99.90
13561;DHT22;6852;51.686;5.314;2022-10-20T07:36:28;12.00;99.90
13561;DHT22;6852;51.686;5.314;2022-10-20T07:39:03;12.00;99.90
13561;DHT22;6852;51.686;5.314;2022-10-20T07:41:32;12.10;99.90
13561;DHT22;6852;51.686;5.314;2022-10-20T07:43:59;12.20;99.90
13561;DHT22;6852;51.686;5.314;2022-10-20T07:46:26;12.20;99.90
13561;DHT22;6852;51.686;5.314;2022-10-20T07:48:53;12.30;99.90
13561;DHT22;6852;51.686;5.314;2022-10-20T07:54:05;12.40;99.90
13561;DHT22;6852;51.686;5.314;2022-10-20T07:56:40;12.50;99.90
13561;DHT22;6852;51.686;5.314;2022-10-20T07:59:09;12.60;99.90
13561;DHT22;6852;51.686;5.314;2022-10-20T08:01:36;12.70;99.90
13561;DHT22;6852;51.686;5.314;2022-10-20T08:04:03;12.80;99.90
13561;DHT22;6852;51.686;5.314;2022-10-20T08:06:30;12.90;99.90
13561;DHT22;6852;51.686;5.314;2022-10-20T08:08:58;13.00;99.90
13561;DHT22;6852;51.686;5.314;2022-10-20T08:11:26;13.00;99.90
13561;DHT22;6852;51.686;5.314;2022-10-20T08:13:52;13.00;99.90
13561;DHT22;6852;51.686;5.314;2022-10-20T08:16:19;13.10;99.90
13561;DHT22;6852;51.686;5.314;2022-10-20T08:19:01;13.10;99.90
13561;DHT22;6852;51.686;5.314;2022-10-20T08:21:37;13.10;99.90
13561;DHT22;6852;51.686;5.314;2022-10-20T08:24:04;13.30;99.90
13561;DHT22;6852;51.686;5.314;2022-10-20T08:26:30;13.30;99.90
13561;DHT22;6852;51.686;5.314;2022-10-20T08:28:57;13.30;99.90
13561;DHT22;6852;51.686;5.314;2022-10-20T08:31:24;13.30;99.90
13561;DHT22;6852;51.686;5.314;2022-10-20T08:33:51;13.30;99.90
13561;DHT22;6852;51.686;5.314;2022-10-20T08:36:19;13.30;99.90
13561;DHT22;6852;51.686;5.314;2022-10-20T08:38:47;13.30;99.90
13561;DHT22;6852;51.686;5.314;2022-10-20T08:41:22;13.30;99.90
13561;DHT22;6852;51.686;5.314;2022-10-20T08:43:53;13.30;99.90
13561;DHT22;6852;51.686;5.314;2022-10-20T08:46:26;13.30;99.90
13561;DHT22;6852;51.686;5.314;2022-10-20T08:48:54;13.40;99.90
13561;DHT22;6852;51.686;5.314;2022-10-20T08:51:24;13.40;99.90
13561;DHT22;6852;51.686;5.314;2022-10-20T08:53:55;13.40;99.90
13561;DHT22;6852;51.686;5.314;2022-10-20T08:56:24;13.40;99.90
13561;DHT22;6852;51.686;5.314;2022-10-20T08:58:53;13.50;99.90
13561;DHT22;6852;51.686;5.314;2022-10-20T09:01:23;13.70;99.90
13561;DHT22;6852;51.686;5.314;2022-10-20T09:03:55;13.70;99.90
13561;DHT22;6852;51.686;5.314;2022-10-20T09:06:23;13.70;99.90
13561;DHT22;6852;51.686;5.314;2022-10-20T09:08:50;13.70;99.90
13561;DHT22;6852;51.686;5.314;2022-10-20T09:11:23;13.80;99.90
13561;DHT22;6852;51.686;5.314;2022-10-20T09:13:52;13.70;99.90
13561;DHT22;6852;51.686;5.314;2022-10-20T09:16:26;13.70;99.90
13561;DHT22;6852;51.686;5.314;2022-10-20T09:19:21;13.70;99.90
13561;DHT22;6852;51.686;5.314;2022-10-20T09:21:55;13.90;99.90
13561;DHT22;6852;51.686;5.314;2022-10-20T09:24:24;14.00;99.90
13561;DHT22;6852;51.686;5.314;2022-10-20T09:26:52;14.10;99.90
13561;DHT22;6852;51.686;5.314;2022-10-20T09:29:37;14.00;99.90
13561;DHT22;6852;51.686;5.314;2022-10-20T09:32:20;14.10;99.90
13561;DHT22;6852;51.686;5.314;2022-10-20T09:35:23;14.10;99.90
13561;DHT22;6852;51.686;5.314;2022-10-20T09:38:03;14.20;99.90
13561;DHT22;6852;51.686;5.314;2022-10-20T09:41:06;14.20;99.90
13561;DHT22;6852;51.686;5.314;2022-10-20T09:43:40;14.20;99.90
13561;DHT22;6852;51.686;5.314;2022-10-20T09:46:17;14.20;99.90
13561;DHT22;6852;51.686;5.314;2022-10-20T09:48:47;14.20;99.90
13561;DHT22;6852;51.686;5.314;2022-10-20T09:51:19;14.30;99.90
13561;DHT22;6852;51.686;5.314;2022-10-20T09:54:07;14.20;99.90
13561;DHT22;6852;51.686;5.314;2022-10-20T09:56:41;14.40;99.90
13561;DHT22;6852;51.686;5.314;2022-10-20T09:59:36;14.40;99.90
13561;DHT22;6852;51.686;5.314;2022-10-20T10:02:28;14.40;99.90
13561;DHT22;6852;51.686;5.314;2022-10-20T10:05:14;14.30;99.90
13561;DHT22;6852;51.686;5.314;2022-10-20T10:07:41;14.30;99.90
13561;DHT22;6852;51.686;5.314;2022-10-20T10:12:55;14.40;99.90
13561;DHT22;6852;51.686;5.314;2022-10-20T10:17:51;14.40;99.90
13561;DHT22;6852;51.686;5.314;2022-10-20T10:20:32;14.50;99.90
13561;DHT22;6852;51.686;5.314;2022-10-20T10:23:24;14.40;99.90
13561;DHT22;6852;51.686;5.314;2022-10-20T10:25:52;14.50;99.90
13561;DHT22;6852;51.686;5.314;2022-10-20T10:28:35;14.50;99.90
13561;DHT22;6852;51.686;5.314;2022-10-20T10:31:18;14.40;99.90
13561;DHT22;6852;51.686;5.314;2022-10-20T10:33:47;14.40;99.90
13561;DHT22;6852;51.686;5.314;2022-10-20T10:36:35;14.40;99.90
13561;DHT22;6852;51.686;5.314;2022-10-20T10:39:05;14.40;99.90
13561;DHT22;6852;51.686;5.314;2022-10-20T10:52:57;14.30;99.90
13561;DHT22;6852;51.686;5.314;2022-10-20T10:55:33;14.30;99.90
13561;DHT22;6852;51.686;5.314;2022-10-20T11:03:47;14.40;99.90
13561;DHT22;6852;51.686;5.314;2022-10-20T11:15:10;14.20;99.90
13561;DHT22;6852;51.686;5.314;2022-10-20T11:28:44;14.10;99.90
13561;DHT22;6852;51.686;5.314;2022-10-20T11:31:29;14.10;99.90
13561;DHT22;6852;51.686;5.314;2022-10-20T11:34:27;14.10;99.90
13561;DHT22;6852;51.686;5.314;2022-10-20T11:37:06;14.10;99.90
13561;DHT22;6852;51.686;5.314;2022-10-20T11:39:44;14.10;99.90
13561;DHT22;6852;51.686;5.314;2022-10-20T11:44:53;14.00;99.90
13561;DHT22;6852;51.686;5.314;2022-10-20T11:47:31;14.00;99.90
13561;DHT22;6852;51.686;5.314;2022-10-20T11:50:00;14.10;99.90
13561;DHT22;6852;51.686;5.314;2022-10-20T12:01:57;14.20;99.90
13561;DHT22;6852;51.686;5.314;2022-10-20T12:04:50;14.30;99.90
13561;DHT22;6852;51.686;5.314;2022-10-20T12:15:50;14.40;99.90
13561;DHT22;6852;51.686;5.314;2022-10-20T12:18:24;14.40;99.90
13561;DHT22;6852;51.686;5.314;2022-10-20T12:20:57;14.50;99.90
13561;DHT22;6852;51.686;5.314;2022-10-20T12:28:55;14.50;99.90
13561;DHT22;6852;51.686;5.314;2022-10-20T12:31:22;14.60;99.90
13561;DHT22;6852;51.686;5.314;2022-10-20T12:36:36;14.80;99.90
13561;DHT22;6852;51.686;5.314;2022-10-20T12:39:17;14.80;99.90
13561;DHT22;6852;51.686;5.314;2022-10-20T12:41:57;14.90;99.90
13561;DHT22;6852;51.686;5.314;2022-10-20T12:44:27;14.90;99.90
13561;DHT22;6852;51.686;5.314;2022-10-20T12:47:03;14.90;99.90
13561;DHT22;6852;51.686;5.314;2022-10-20T12:49:37;14.90;99.90
13561;DHT22;6852;51.686;5.314;2022-10-20T12:52:18;15.00;99.90
13561;DHT22;6852;51.686;5.314;2022-10-20T12:54:53;15.00;99.90
13561;DHT22;6852;51.686;5.314;2022-10-20T12:57:37;15.20;99.90
13561;DHT22;6852;51.686;5.314;2022-10-20T13:02:57;15.50;99.90
13561;DHT22;6852;51.686;5.314;2022-10-20T13:05:41;15.60;99.90
13561;DHT22;6852;51.686;5.314;2022-10-20T13:08:21;15.50;99.90
13561;DHT22;6852;51.686;5.314;2022-10-20T13:10:48;15.50;99.90
13561;DHT22;6852;51.686;5.314;2022-10-20T13:15:46;15.90;99.90
13561;DHT22;6852;51.686;5.314;2022-10-20T13:18:43;16.10;99.90
13561;DHT22;6852;51.686;5.314;2022-10-20T13:21:27;16.10;99.90
13561;DHT22;6852;51.686;5.314;2022-10-20T13:29:26;16.00;99.90
13561;DHT22;6852;51.686;5.314;2022-10-20T13:37:40;16.30;99.90
13561;DHT22;6852;51.686;5.314;2022-10-20T13:40:58;16.40;99.90
13561;DHT22;6852;51.686;5.314;2022-10-20T13:51:24;17.00;99.90
13561;DHT22;6852;51.686;5.314;2022-10-20T13:54:02;17.30;99.90
13561;DHT22;6852;51.686;5.314;2022-10-20T13:56:35;17.40;99.90
13561;DHT22;6852;51.686;5.314;2022-10-20T13:59:05;17.70;99.90
13561;DHT22;6852;51.686;5.314;2022-10-20T14:01:50;17.90;99.90
13561;DHT22;6852;51.686;5.314;2022-10-20T14:06:51;18.10;99.90
13561;DHT22;6852;51.686;5.314;2022-10-20T14:09:23;18.30;99.90
13561;DHT22;6852;51.686;5.314;2022-10-20T14:12:03;18.20;99.90
13561;DHT22;6852;51.686;5.314;2022-10-20T14:14:31;18.30;99.90
13561;DHT22;6852;51.686;5.314;2022-10-20T14:17:01;18.20;99.90
13561;DHT22;6852;51.686;5.314;2022-10-20T14:19:29;18.40;99.90
13561;DHT22;6852;51.686;5.314;2022-10-20T14:24:41;18.30;99.90
13561;DHT22;6852;51.686;5.314;2022-10-20T14:27:18;18.30;99.90
13561;DHT22;6852;51.686;5.314;2022-10-20T14:29:46;18.50;99.90
13561;DHT22;6852;51.686;5.314;2022-10-20T14:32:23;18.80;99.90
13561;DHT22;6852;51.686;5.314;2022-10-20T14:35:21;19.00;99.90
13561;DHT22;6852;51.686;5.314;2022-10-20T14:37:53;19.20;99.90
13561;DHT22;6852;51.686;5.314;2022-10-20T14:40:32;19.40;99.90
13561;DHT22;6852;51.686;5.314;2022-10-20T14:43:13;19.60;99.90
13561;DHT22;6852;51.686;5.314;2022-10-20T14:45:40;19.40;99.90
13561;DHT22;6852;51.686;5.314;2022-10-20T14:48:17;19.50;99.90
13561;DHT22;6852;51.686;5.314;2022-10-20T14:50:43;19.30;99.90
13561;DHT22;6852;51.686;5.314;2022-10-20T14:55:48;19.30;99.90
13561;DHT22;6852;51.686;5.314;2022-10-20T14:58:37;19.50;99.90
13561;DHT22;6852;51.686;5.314;2022-10-20T15:01:25;19.70;99.90
13561;DHT22;6852;51.686;5.314;2022-10-20T15:04:22;19.60;99.90
13561;DHT22;6852;51.686;5.314;2022-10-20T15:06:49;19.20;99.90
13561;DHT22;6852;51.686;5.314;2022-10-20T15:09:30;19.00;99.90
13561;DHT22;6852;51.686;5.314;2022-10-20T15:11:57;18.90;99.90
13561;DHT22;6852;51.686;5.314;2022-10-20T15:14:24;18.80;99.90
13561;DHT22;6852;51.686;5.314;2022-10-20T15:16:51;18.70;99.90
13561;DHT22;6852;51.686;5.314;2022-10-20T15:19:34;18.60;99.90
13561;DHT22;6852;51.686;5.314;2022-10-20T15:22:11;18.70;99.90
13561;DHT22;6852;51.686;5.314;2022-10-20T15:24:45;18.90;99.90
13561;DHT22;6852;51.686;5.314;2022-10-20T15:27:14;18.90;99.90
13561;DHT22;6852;51.686;5.314;2022-10-20T15:29:51;18.90;99.90
13561;DHT22;6852;51.686;5.314;2022-10-20T15:32:17;18.90;99.90
13561;DHT22;6852;51.686;5.314;2022-10-20T15:34:44;18.80;99.90
13561;DHT22;6852;51.686;5.314;2022-10-20T15:37:11;18.80;99.90
13561;DHT22;6852;51.686;5.314;2022-10-20T15:39:38;18.80;99.90
13561;DHT22;6852;51.686;5.314;2022-10-20T15:42:04;18.80;99.90
13561;DHT22;6852;51.686;5.314;2022-10-20T15:44:36;18.70;99.90
13561;DHT22;6852;51.686;5.314;2022-10-20T15:47:03;18.50;99.90
13561;DHT22;6852;51.686;5.314;2022-10-20T15:49:30;18.30;99.90
13561;DHT22;6852;51.686;5.314;2022-10-20T15:51:57;18.30;99.90
13561;DHT22;6852;51.686;5.314;2022-10-20T15:54:23;18.20;99.90
13561;DHT22;6852;51.686;5.314;2022-10-20T15:56:50;18.00;99.90
13561;DHT22;6852;51.686;5.314;2022-10-20T15:59:17;18.00;99.90
13561;DHT22;6852;51.686;5.314;2022-10-20T16:01:44;17.90;99.90
13561;DHT22;6852;51.686;5.314;2022-10-20T16:04:19;17.80;99.90
13561;DHT22;6852;51.686;5.314;2022-10-20T16:06:49;17.80;99.90
13561;DHT22;6852;51.686;5.314;2022-10-20T16:09:24;17.70;99.90
13561;DHT22;6852;51.686;5.314;2022-10-20T16:11:51;17.60;99.90
13561;DHT22;6852;51.686;5.314;2022-10-20T16:14:18;17.60;99.90
13561;DHT22;6852;51.686;5.314;2022-10-20T16:16:45;17.60;99.90
13561;DHT22;6852;51.686;5.314;2022-10-20T16:19:11;17.50;99.90
13561;DHT22;6852;51.686;5.314;2022-10-20T16:21:39;17.60;99.90
13561;DHT22;6852;51.686;5.314;2022-10-20T16:24:06;17.50;99.90
13561;DHT22;6852;51.686;5.314;2022-10-20T16:26:33;17.50;99.90
13561;DHT22;6852;51.686;5.314;2022-10-20T16:29:00;17.40;99.90
13561;DHT22;6852;51.686;5.314;2022-10-20T16:31:27;17.40;99.90
13561;DHT22;6852;51.686;5.314;2022-10-20T16:33:57;17.30;99.90
13561;DHT22;6852;51.686;5.314;2022-10-20T16:36:25;17.30;99.90
13561;DHT22;6852;51.686;5.314;2022-10-20T16:38:55;17.20;99.90
13561;DHT22;6852;51.686;5.314;2022-10-20T16:41:23;17.20;99.90
13561;DHT22;6852;51.686;5.314;2022-10-20T16:43:49;17.20;99.90
13561;DHT22;6852;51.686;5.314;2022-10-20T16:46:16;17.10;99.90
13561;DHT22;6852;51.686;5.314;2022-10-20T16:48:43;17.10;99.90
13561;DHT22;6852;51.686;5.314;2022-10-20T16:51:14;17.10;99.90
13561;DHT22;6852;51.686;5.314;2022-10-20T16:53:41;17.00;99.90
13561;DHT22;6852;51.686;5.314;2022-10-20T16:56:08;16.90;99.90
13561;DHT22;6852;51.686;5.314;2022-10-20T16:58:35;16.90;99.90
13561;DHT22;6852;51.686;5.314;2022-10-20T17:01:05;16.90;99.90
13561;DHT22;6852;51.686;5.314;2022-10-20T17:03:35;16.70;99.90
13561;DHT22;6852;51.686;5.314;2022-10-20T17:06:04;16.70;99.90
13561;DHT22;6852;51.686;5.314;2022-10-20T17:08:32;16.70;99.90
13561;DHT22;6852;51.686;5.314;2022-10-20T17:11:02;16.70;99.90
13561;DHT22;6852;51.686;5.314;2022-10-20T17:13:30;16.60;99.90
13561;DHT22;6852;51.686;5.314;2022-10-20T17:16:03;16.50;99.90
13561;DHT22;6852;51.686;5.314;2022-10-20T17:18:30;16.50;99.90
13561;DHT22;6852;51.686;5.314;2022-10-20T17:20:57;16.50;99.90
13561;DHT22;6852;51.686;5.314;2022-10-20T17:23:24;16.30;99.90
13561;DHT22;6852;51.686;5.314;2022-10-20T17:25:52;16.30;99.90
13561;DHT22;6852;51.686;5.314;2022-10-20T17:28:19;16.30;99.90
13561;DHT22;6852;51.686;5.314;2022-10-20T17:30:46;16.20;99.90
13561;DHT22;6852;51.686;5.314;2022-10-20T17:33:14;16.20;99.90
13561;DHT22;6852;51.686;5.314;2022-10-20T17:35:46;16.20;99.90
13561;DHT22;6852;51.686;5.314;2022-10-20T17:38:12;16.10;99.90
13561;DHT22;6852;51.686;5.314;2022-10-20T17:40:39;16.00;99.90
13561;DHT22;6852;51.686;5.314;2022-10-20T17:43:06;16.10;99.90
13561;DHT22;6852;51.686;5.314;2022-10-20T17:45:33;16.00;99.90
13561;DHT22;6852;51.686;5.314;2022-10-20T17:48:04;16.00;99.90
13561;DHT22;6852;51.686;5.314;2022-10-20T17:50:31;16.00;99.90
13561;DHT22;6852;51.686;5.314;2022-10-20T17:52:59;16.00;99.90
13561;DHT22;6852;51.686;5.314;2022-10-20T17:55:27;15.90;99.90
13561;DHT22;6852;51.686;5.314;2022-10-20T17:57:54;15.90;99.90
13561;DHT22;6852;51.686;5.314;2022-10-20T18:00:21;15.90;99.90
13561;DHT22;6852;51.686;5.314;2022-10-20T18:03:08;15.90;99.90
13561;DHT22;6852;51.686;5.314;2022-10-20T18:05:35;15.80;99.90
13561;DHT22;6852;51.686;5.314;2022-10-20T18:08:02;15.80;99.90
13561;DHT22;6852;51.686;5.314;2022-10-20T18:10:29;15.80;99.90
13561;DHT22;6852;51.686;5.314;2022-10-20T18:12:55;15.80;99.90
13561;DHT22;6852;51.686;5.314;2022-10-20T18:15:22;15.80;99.90
13561;DHT22;6852;51.686;5.314;2022-10-20T18:17:49;15.80;99.90
13561;DHT22;6852;51.686;5.314;2022-10-20T18:20:16;15.80;99.90
13561;DHT22;6852;51.686;5.314;2022-10-20T18:22:42;15.80;99.90
13561;DHT22;6852;51.686;5.314;2022-10-20T18:25:10;15.80;99.90
13561;DHT22;6852;51.686;5.314;2022-10-20T18:27:37;15.70;99.90
13561;DHT22;6852;51.686;5.314;2022-10-20T18:30:04;15.70;99.90